sensor_id;sensor_type;location;lat;lon;timestamp;P1;durP1;ratioP1;P2;durP2;ratioP2
18322;SDS011;9287;49.456;11.064;2023-01-04T00:01:24;21.87;;;14.43;;
18322;SDS011;9287;49.456;11.064;2023-01-04T00:03:51;18.20;;;14.20;;
18322;SDS011;9287;49.456;11.064;2023-01-04T00:06:19;19.03;;;14.33;;
18322;SDS011;9287;49.456;11.064;2023-01-04T00:08:47;18.77;;;14.17;;
18322;SDS011;9287;49.456;11.064;2023-01-04T00:11:16;18.77;;;14.47;;
18322;SDS011;9287;49.456;11.064;2023-01-04T00:13:45;18.33;;;13.87;;
18322;SDS011;9287;49.456;11.064;2023-01-04T00:16:16;16.07;;;12.87;;
18322;SDS011;9287;49.456;11.064;2023-01-04T00:18:45;18.63;;;14.20;;
18322;SDS011;9287;49.456;11.064;2023-01-04T00:21:13;17.43;;;14.40;;
18322;SDS011;9287;49.456;11.064;2023-01-04T00:23:43;19.23;;;14.80;;
18322;SDS011;9287;49.456;11.064;2023-01-04T00:26:13;17.53;;;14.17;;
18322;SDS011;9287;49.456;11.064;2023-01-04T00:28:41;20.03;;;15.07;;
18322;SDS011;9287;49.456;11.064;2023-01-04T00:31:20;21.70;;;16.10;;
18322;SDS011;9287;49.456;11.064;2023-01-04T00:33:49;21.60;;;16.03;;
18322;SDS011;9287;49.456;11.064;2023-01-04T00:36:17;20.90;;;15.47;;
18322;SDS011;9287;49.456;11.064;2023-01-04T00:38:44;20.93;;;15.20;;
18322;SDS011;9287;49.456;11.064;2023-01-04T00:41:12;20.50;;;15.73;;
18322;SDS011;9287;49.456;11.064;2023-01-04T00:44:00;21.30;;;15.30;;
18322;SDS011;9287;49.456;11.064;2023-01-04T00:46:31;22.17;;;15.93;;
18322;SDS011;9287;49.456;11.064;2023-01-04T00:48:59;19.67;;;15.93;;
18322;SDS011;9287;49.456;11.064;2023-01-04T00:51:27;19.77;;;15.90;;
18322;SDS011;9287;49.456;11.064;2023-01-04T00:53:56;21.10;;;15.70;;
18322;SDS011;9287;49.456;11.064;2023-01-04T00:56:24;20.87;;;15.83;;
18322;SDS011;9287;49.456;11.064;2023-01-04T00:58:52;20.70;;;15.97;;
18322;SDS011;9287;49.456;11.064;2023-01-04T01:01:21;20.50;;;15.60;;
18322;SDS011;9287;49.456;11.064;2023-01-04T01:03:52;22.20;;;16.70;;
18322;SDS011;9287;49.456;11.064;2023-01-04T01:06:21;20.47;;;15.80;;
18322;SDS011;9287;49.456;11.064;2023-01-04T01:08:50;21.57;;;15.87;;
18322;SDS011;9287;49.456;11.064;2023-01-04T01:11:18;24.37;;;17.50;;
18322;SDS011;9287;49.456;11.064;2023-01-04T01:13:47;20.37;;;16.03;;
18322;SDS011;9287;49.456;11.064;2023-01-04T01:16:16;23.73;;;16.23;;
18322;SDS011;9287;49.456;11.064;2023-01-04T01:19:07;21.67;;;17.27;;
18322;SDS011;9287;49.456;11.064;2023-01-04T01:21:35;23.50;;;17.00;;
18322;SDS011;9287;49.456;11.064;2023-01-04T01:24:03;22.70;;;17.07;;
18322;SDS011;9287;49.456;11.064;2023-01-04T01:26:31;26.97;;;17.77;;
18322;SDS011;9287;49.456;11.064;2023-01-04T01:28:59;26.50;;;17.90;;
18322;SDS011;9287;49.456;11.064;2023-01-04T01:31:27;26.93;;;18.87;;
18322;SDS011;9287;49.456;11.064;2023-01-04T01:33:55;26.20;;;18.00;;
18322;SDS011;9287;49.456;11.064;2023-01-04T01:36:25;30.63;;;18.77;;
18322;SDS011;9287;49.456;11.064;2023-01-04T01:38:52;27.40;;;18.20;;
18322;SDS011;9287;49.456;11.064;2023-01-04T01:41:21;26.40;;;19.20;;
18322;SDS011;9287;49.456;11.064;2023-01-04T01:43:52;31.27;;;18.77;;
18322;SDS011;9287;49.456;11.064;2023-01-04T01:46:22;27.07;;;18.87;;
18322;SDS011;9287;49.456;11.064;2023-01-04T01:48:55;29.40;;;17.70;;
18322;SDS011;9287;49.456;11.064;2023-01-04T01:51:27;30.20;;;19.13;;
18322;SDS011;9287;49.456;11.064;2023-01-04T01:53:58;29.87;;;19.60;;
18322;SDS011;9287;49.456;11.064;2023-01-04T01:56:30;28.63;;;18.33;;
18322;SDS011;9287;49.456;11.064;2023-01-04T01:59:02;36.43;;;19.87;;
18322;SDS011;9287;49.456;11.064;2023-01-04T02:01:30;33.30;;;18.93;;
18322;SDS011;9287;49.456;11.064;2023-01-04T02:03:59;30.73;;;18.83;;
18322;SDS011;9287;49.456;11.064;2023-01-04T02:06:32;36.30;;;19.43;;
18322;SDS011;9287;49.456;11.064;2023-01-04T02:09:02;24.23;;;16.53;;
18322;SDS011;9287;49.456;11.064;2023-01-04T02:11:30;38.27;;;19.47;;
18322;SDS011;9287;49.456;11.064;2023-01-04T02:13:57;35.17;;;19.03;;
18322;SDS011;9287;49.456;11.064;2023-01-04T02:16:51;28.40;;;18.63;;
18322;SDS011;9287;49.456;11.064;2023-01-04T02:19:39;40.33;;;20.93;;
18322;SDS011;9287;49.456;11.064;2023-01-04T02:28:51;37.93;;;22.10;;
18322;SDS011;9287;49.456;11.064;2023-01-04T02:31:48;34.80;;;20.60;;
18322;SDS011;9287;49.456;11.064;2023-01-04T02:34:22;48.00;;;21.03;;
18322;SDS011;9287;49.456;11.064;2023-01-04T02:36:59;48.63;;;21.80;;
18322;SDS011;9287;49.456;11.064;2023-01-04T02:39:36;46.00;;;20.70;;
18322;SDS011;9287;49.456;11.064;2023-01-04T02:42:13;39.73;;;22.40;;
18322;SDS011;9287;49.456;11.064;2023-01-04T02:44:47;51.40;;;22.90;;
18322;SDS011;9287;49.456;11.064;2023-01-04T02:47:21;46.73;;;22.63;;
18322;SDS011;9287;49.456;11.064;2023-01-04T02:50:11;38.20;;;22.13;;
18322;SDS011;9287;49.456;11.064;2023-01-04T02:53:02;71.13;;;25.00;;
18322;SDS011;9287;49.456;11.064;2023-01-04T02:55:37;40.30;;;23.10;;
18322;SDS011;9287;49.456;11.064;2023-01-04T02:58:17;42.73;;;24.07;;
18322;SDS011;9287;49.456;11.064;2023-01-04T03:01:00;38.60;;;22.80;;
18322;SDS011;9287;49.456;11.064;2023-01-04T03:04:00;39.60;;;25.00;;
18322;SDS011;9287;49.456;11.064;2023-01-04T03:06:57;38.20;;;22.70;;
18322;SDS011;9287;49.456;11.064;2023-01-04T03:09:30;37.97;;;21.53;;
18322;SDS011;9287;49.456;11.064;2023-01-04T03:12:03;39.70;;;22.40;;
18322;SDS011;9287;49.456;11.064;2023-01-04T03:14:52;36.03;;;21.00;;
18322;SDS011;9287;49.456;11.064;2023-01-04T03:17:26;33.93;;;20.67;;
18322;SDS011;9287;49.456;11.064;2023-01-04T03:19:59;36.07;;;21.37;;
18322;SDS011;9287;49.456;11.064;2023-01-04T03:22:31;32.63;;;20.10;;
18322;SDS011;9287;49.456;11.064;2023-01-04T03:25:21;35.67;;;21.20;;
18322;SDS011;9287;49.456;11.064;2023-01-04T03:28:12;33.93;;;20.80;;
18322;SDS011;9287;49.456;11.064;2023-01-04T03:31:00;34.63;;;21.90;;
18322;SDS011;9287;49.456;11.064;2023-01-04T03:33:52;31.73;;;20.67;;
18322;SDS011;9287;49.456;11.064;2023-01-04T03:36:53;31.23;;;20.73;;
18322;SDS011;9287;49.456;11.064;2023-01-04T03:39:27;31.50;;;20.60;;
18322;SDS011;9287;49.456;11.064;2023-01-04T03:42:19;26.20;;;19.10;;
18322;SDS011;9287;49.456;11.064;2023-01-04T03:45:12;29.57;;;20.30;;
18322;SDS011;9287;49.456;11.064;2023-01-04T03:48:02;25.87;;;18.43;;
18322;SDS011;9287;49.456;11.064;2023-01-04T03:50:57;25.63;;;17.87;;
18322;SDS011;9287;49.456;11.064;2023-01-04T03:53:33;22.83;;;15.90;;
18322;SDS011;9287;49.456;11.064;2023-01-04T03:56:06;22.33;;;15.60;;
18322;SDS011;9287;49.456;11.064;2023-01-04T03:58:37;22.00;;;14.87;;
18322;SDS011;9287;49.456;11.064;2023-01-04T04:01:05;21.30;;;15.73;;
18322;SDS011;9287;49.456;11.064;2023-01-04T04:03:33;21.70;;;15.97;;
18322;SDS011;9287;49.456;11.064;2023-01-04T04:06:19;20.97;;;15.50;;
18322;SDS011;9287;49.456;11.064;2023-01-04T04:09:05;23.53;;;16.07;;
18322;SDS011;9287;49.456;11.064;2023-01-04T04:11:33;23.43;;;15.83;;
18322;SDS011;9287;49.456;11.064;2023-01-04T04:14:01;22.43;;;15.40;;
18322;SDS011;9287;49.456;11.064;2023-01-04T04:16:28;20.93;;;14.37;;
18322;SDS011;9287;49.456;11.064;2023-01-04T04:18:56;18.80;;;14.27;;
18322;SDS011;9287;49.456;11.064;2023-01-04T04:21:31;21.10;;;14.60;;
18322;SDS011;9287;49.456;11.064;2023-01-04T04:23:59;19.63;;;14.70;;
18322;SDS011;9287;49.456;11.064;2023-01-04T04:26:28;21.73;;;14.37;;
18322;SDS011;9287;49.456;11.064;2023-01-04T04:28:56;20.80;;;15.53;;
18322;SDS011;9287;49.456;11.064;2023-01-04T04:31:24;20.73;;;15.10;;
18322;SDS011;9287;49.456;11.064;2023-01-04T04:33:51;26.53;;;15.93;;
18322;SDS011;9287;49.456;11.064;2023-01-04T04:36:19;20.87;;;15.17;;
18322;SDS011;9287;49.456;11.064;2023-01-04T04:38:47;22.20;;;15.67;;
18322;SDS011;9287;49.456;11.064;2023-01-04T04:41:15;23.63;;;16.50;;
18322;SDS011;9287;49.456;11.064;2023-01-04T04:44:01;22.17;;;15.93;;
18322;SDS011;9287;49.456;11.064;2023-01-04T04:46:29;20.53;;;15.50;;
18322;SDS011;9287;49.456;11.064;2023-01-04T04:48:56;22.87;;;16.50;;
18322;SDS011;9287;49.456;11.064;2023-01-04T04:51:24;23.30;;;17.00;;
18322;SDS011;9287;49.456;11.064;2023-01-04T04:53:52;23.20;;;15.83;;
18322;SDS011;9287;49.456;11.064;2023-01-04T04:56:20;24.47;;;17.10;;
18322;SDS011;9287;49.456;11.064;2023-01-04T04:58:48;25.63;;;16.80;;
18322;SDS011;9287;49.456;11.064;2023-01-04T05:01:17;23.53;;;16.67;;
18322;SDS011;9287;49.456;11.064;2023-01-04T05:03:46;22.97;;;16.13;;
18322;SDS011;9287;49.456;11.064;2023-01-04T05:06:14;22.33;;;15.83;;
18322;SDS011;9287;49.456;11.064;2023-01-04T05:08:41;24.17;;;16.60;;
18322;SDS011;9287;49.456;11.064;2023-01-04T05:11:10;23.60;;;16.13;;
18322;SDS011;9287;49.456;11.064;2023-01-04T05:13:38;22.30;;;15.00;;
18322;SDS011;9287;49.456;11.064;2023-01-04T05:16:06;23.17;;;15.00;;
18322;SDS011;9287;49.456;11.064;2023-01-04T05:18:37;22.10;;;14.77;;
18322;SDS011;9287;49.456;11.064;2023-01-04T05:21:05;22.07;;;15.60;;
18322;SDS011;9287;49.456;11.064;2023-01-04T05:23:32;20.70;;;14.67;;
18322;SDS011;9287;49.456;11.064;2023-01-04T05:26:00;24.30;;;15.43;;
18322;SDS011;9287;49.456;11.064;2023-01-04T05:28:29;21.10;;;14.70;;
18322;SDS011;9287;49.456;11.064;2023-01-04T05:30:56;19.73;;;14.20;;
18322;SDS011;9287;49.456;11.064;2023-01-04T05:33:24;20.13;;;13.80;;
18322;SDS011;9287;49.456;11.064;2023-01-04T05:35:57;20.40;;;13.87;;
18322;SDS011;9287;49.456;11.064;2023-01-04T05:38:27;20.63;;;13.50;;
18322;SDS011;9287;49.456;11.064;2023-01-04T05:40:55;19.60;;;12.80;;
18322;SDS011;9287;49.456;11.064;2023-01-04T05:43:23;18.73;;;12.50;;
18322;SDS011;9287;49.456;11.064;2023-01-04T05:45:51;18.53;;;12.70;;
18322;SDS011;9287;49.456;11.064;2023-01-04T05:48:20;17.80;;;12.10;;
18322;SDS011;9287;49.456;11.064;2023-01-04T05:50:50;19.33;;;12.87;;
18322;SDS011;9287;49.456;11.064;2023-01-04T05:53:20;20.80;;;13.13;;
18322;SDS011;9287;49.456;11.064;2023-01-04T05:55:48;16.87;;;11.70;;
18322;SDS011;9287;49.456;11.064;2023-01-04T05:58:15;20.67;;;12.27;;
18322;SDS011;9287;49.456;11.064;2023-01-04T06:00:43;19.57;;;12.80;;
18322;SDS011;9287;49.456;11.064;2023-01-04T06:03:11;18.93;;;12.83;;
18322;SDS011;9287;49.456;11.064;2023-01-04T06:05:39;17.03;;;11.93;;
18322;SDS011;9287;49.456;11.064;2023-01-04T06:08:07;17.07;;;11.60;;
18322;SDS011;9287;49.456;11.064;2023-01-04T06:10:36;23.30;;;12.47;;
18322;SDS011;9287;49.456;11.064;2023-01-04T06:13:03;17.73;;;11.70;;
18322;SDS011;9287;49.456;11.064;2023-01-04T06:15:31;19.07;;;11.87;;
18322;SDS011;9287;49.456;11.064;2023-01-04T06:18:08;18.13;;;11.70;;
18322;SDS011;9287;49.456;11.064;2023-01-04T06:20:39;15.97;;;10.73;;
18322;SDS011;9287;49.456;11.064;2023-01-04T06:23:08;16.53;;;11.13;;
18322;SDS011;9287;49.456;11.064;2023-01-04T06:25:37;16.67;;;11.40;;
18322;SDS011;9287;49.456;11.064;2023-01-04T06:28:05;15.60;;;10.67;;
18322;SDS011;9287;49.456;11.064;2023-01-04T06:30:33;16.73;;;11.70;;
18322;SDS011;9287;49.456;11.064;2023-01-04T06:33:01;17.13;;;11.00;;
18322;SDS011;9287;49.456;11.064;2023-01-04T06:35:29;16.17;;;11.43;;
18322;SDS011;9287;49.456;11.064;2023-01-04T06:37:57;19.20;;;11.87;;
18322;SDS011;9287;49.456;11.064;2023-01-04T06:40:24;19.43;;;11.43;;
18322;SDS011;9287;49.456;11.064;2023-01-04T06:42:53;17.50;;;11.67;;
18322;SDS011;9287;49.456;11.064;2023-01-04T06:45:21;17.57;;;11.53;;
18322;SDS011;9287;49.456;11.064;2023-01-04T06:47:49;18.67;;;11.10;;
18322;SDS011;9287;49.456;11.064;2023-01-04T06:50:17;20.97;;;12.30;;
18322;SDS011;9287;49.456;11.064;2023-01-04T06:52:44;20.77;;;12.50;;
18322;SDS011;9287;49.456;11.064;2023-01-04T06:55:12;19.33;;;12.07;;
18322;SDS011;9287;49.456;11.064;2023-01-04T06:57:40;19.40;;;11.90;;
18322;SDS011;9287;49.456;11.064;2023-01-04T07:00:10;19.13;;;12.00;;
18322;SDS011;9287;49.456;11.064;2023-01-04T07:02:39;21.23;;;12.00;;
18322;SDS011;9287;49.456;11.064;2023-01-04T07:05:26;19.77;;;11.40;;
18322;SDS011;9287;49.456;11.064;2023-01-04T07:07:54;23.13;;;12.33;;
18322;SDS011;9287;49.456;11.064;2023-01-04T07:10:33;23.97;;;12.87;;
18322;SDS011;9287;49.456;11.064;2023-01-04T07:13:01;18.60;;;12.20;;
18322;SDS011;9287;49.456;11.064;2023-01-04T07:15:30;20.37;;;12.33;;
18322;SDS011;9287;49.456;11.064;2023-01-04T07:18:05;21.93;;;12.93;;
18322;SDS011;9287;49.456;11.064;2023-01-04T07:20:32;22.00;;;12.00;;
18322;SDS011;9287;49.456;11.064;2023-01-04T07:23:00;22.90;;;13.03;;
18322;SDS011;9287;49.456;11.064;2023-01-04T07:25:28;19.53;;;11.53;;
18322;SDS011;9287;49.456;11.064;2023-01-04T07:27:55;21.73;;;12.43;;
18322;SDS011;9287;49.456;11.064;2023-01-04T07:30:23;22.00;;;13.77;;
18322;SDS011;9287;49.456;11.064;2023-01-04T07:32:52;22.47;;;12.63;;
18322;SDS011;9287;49.456;11.064;2023-01-04T07:35:21;20.97;;;11.60;;
18322;SDS011;9287;49.456;11.064;2023-01-04T07:37:49;18.87;;;12.57;;
18322;SDS011;9287;49.456;11.064;2023-01-04T07:40:24;21.30;;;12.20;;
18322;SDS011;9287;49.456;11.064;2023-01-04T07:42:55;19.37;;;11.93;;
18322;SDS011;9287;49.456;11.064;2023-01-04T07:45:25;20.27;;;12.87;;
18322;SDS011;9287;49.456;11.064;2023-01-04T07:47:55;18.17;;;11.07;;
18322;SDS011;9287;49.456;11.064;2023-01-04T07:50:23;19.23;;;12.03;;
18322;SDS011;9287;49.456;11.064;2023-01-04T07:52:51;18.43;;;12.03;;
18322;SDS011;9287;49.456;11.064;2023-01-04T07:55:19;19.27;;;11.93;;
18322;SDS011;9287;49.456;11.064;2023-01-04T07:57:47;19.93;;;12.47;;
18322;SDS011;9287;49.456;11.064;2023-01-04T08:00:15;19.57;;;13.00;;
18322;SDS011;9287;49.456;11.064;2023-01-04T08:02:43;18.00;;;12.23;;
18322;SDS011;9287;49.456;11.064;2023-01-04T08:05:12;19.77;;;12.97;;
18322;SDS011;9287;49.456;11.064;2023-01-04T08:07:40;21.77;;;13.00;;
18322;SDS011;9287;49.456;11.064;2023-01-04T08:10:08;20.97;;;12.40;;
18322;SDS011;9287;49.456;11.064;2023-01-04T08:12:36;19.53;;;11.53;;
18322;SDS011;9287;49.456;11.064;2023-01-04T08:15:04;19.03;;;11.87;;
18322;SDS011;9287;49.456;11.064;2023-01-04T08:17:32;17.87;;;11.13;;
18322;SDS011;9287;49.456;11.064;2023-01-04T08:20:00;19.20;;;11.43;;
18322;SDS011;9287;49.456;11.064;2023-01-04T08:22:29;20.10;;;12.30;;
18322;SDS011;9287;49.456;11.064;2023-01-04T08:24:57;17.90;;;10.93;;
18322;SDS011;9287;49.456;11.064;2023-01-04T08:27:24;18.20;;;10.93;;
18322;SDS011;9287;49.456;11.064;2023-01-04T08:29:52;15.73;;;10.97;;
18322;SDS011;9287;49.456;11.064;2023-01-04T08:32:20;15.57;;;10.30;;
18322;SDS011;9287;49.456;11.064;2023-01-04T08:34:47;17.57;;;10.50;;
18322;SDS011;9287;49.456;11.064;2023-01-04T08:37:15;14.73;;;9.70;;
18322;SDS011;9287;49.456;11.064;2023-01-04T08:39:44;19.43;;;10.97;;
18322;SDS011;9287;49.456;11.064;2023-01-04T08:42:15;15.13;;;9.37;;
18322;SDS011;9287;49.456;11.064;2023-01-04T08:44:55;14.70;;;9.50;;
18322;SDS011;9287;49.456;11.064;2023-01-04T08:47:26;15.50;;;9.33;;
18322;SDS011;9287;49.456;11.064;2023-01-04T08:49:54;16.53;;;9.97;;
18322;SDS011;9287;49.456;11.064;2023-01-04T08:52:22;15.27;;;9.40;;
18322;SDS011;9287;49.456;11.064;2023-01-04T08:54:51;14.43;;;9.20;;
18322;SDS011;9287;49.456;11.064;2023-01-04T08:57:19;13.63;;;9.10;;
18322;SDS011;9287;49.456;11.064;2023-01-04T08:59:47;14.40;;;8.97;;
18322;SDS011;9287;49.456;11.064;2023-01-04T09:02:19;13.97;;;8.23;;
18322;SDS011;9287;49.456;11.064;2023-01-04T09:04:48;13.93;;;8.10;;
18322;SDS011;9287;49.456;11.064;2023-01-04T09:07:17;12.87;;;8.10;;
18322;SDS011;9287;49.456;11.064;2023-01-04T09:09:45;11.47;;;7.53;;
18322;SDS011;9287;49.456;11.064;2023-01-04T09:12:14;12.50;;;7.53;;
18322;SDS011;9287;49.456;11.064;2023-01-04T09:14:41;15.27;;;7.73;;
18322;SDS011;9287;49.456;11.064;2023-01-04T09:17:09;11.70;;;7.00;;
18322;SDS011;9287;49.456;11.064;2023-01-04T09:19:37;10.23;;;6.53;;
18322;SDS011;9287;49.456;11.064;2023-01-04T09:22:05;8.97;;;6.20;;
18322;SDS011;9287;49.456;11.064;2023-01-04T09:24:32;12.83;;;6.47;;
18322;SDS011;9287;49.456;11.064;2023-01-04T09:27:00;9.10;;;6.07;;
18322;SDS011;9287;49.456;11.064;2023-01-04T09:29:31;7.87;;;5.43;;
18322;SDS011;9287;49.456;11.064;2023-01-04T09:31:58;6.67;;;4.23;;
18322;SDS011;9287;49.456;11.064;2023-01-04T09:34:26;8.67;;;5.43;;
18322;SDS011;9287;49.456;11.064;2023-01-04T09:36:54;6.87;;;4.50;;
18322;SDS011;9287;49.456;11.064;2023-01-04T09:39:22;9.70;;;5.20;;
18322;SDS011;9287;49.456;11.064;2023-01-04T09:41:53;8.60;;;4.80;;
18322;SDS011;9287;49.456;11.064;2023-01-04T09:44:33;6.10;;;3.60;;
18322;SDS011;9287;49.456;11.064;2023-01-04T09:47:26;3.83;;;2.77;;
18322;SDS011;9287;49.456;11.064;2023-01-04T09:50:06;4.40;;;2.97;;
18322;SDS011;9287;49.456;11.064;2023-01-04T09:52:42;2.53;;;2.30;;
18322;SDS011;9287;49.456;11.064;2023-01-04T09:55:18;3.47;;;2.80;;
18322;SDS011;9287;49.456;11.064;2023-01-04T09:58:07;2.77;;;2.00;;
18322;SDS011;9287;49.456;11.064;2023-01-04T10:00:44;2.10;;;1.07;;
18322;SDS011;9287;49.456;11.064;2023-01-04T10:03:17;1.90;;;1.70;;
18322;SDS011;9287;49.456;11.064;2023-01-04T10:05:49;1.17;;;1.00;;
18322;SDS011;9287;49.456;11.064;2023-01-04T10:08:18;2.63;;;1.20;;
18322;SDS011;9287;49.456;11.064;2023-01-04T10:10:47;1.20;;;1.10;;
18322;SDS011;9287;49.456;11.064;2023-01-04T10:13:42;1.03;;;0.80;;
18322;SDS011;9287;49.456;11.064;2023-01-04T10:16:25;1.90;;;0.90;;
18322;SDS011;9287;49.456;11.064;2023-01-04T10:19:31;1.73;;;1.00;;
18322;SDS011;9287;49.456;11.064;2023-01-04T10:22:31;3.43;;;1.13;;
18322;SDS011;9287;49.456;11.064;2023-01-04T10:25:17;1.43;;;0.90;;
18322;SDS011;9287;49.456;11.064;2023-01-04T10:27:53;1.47;;;1.00;;
18322;SDS011;9287;49.456;11.064;2023-01-04T10:30:33;1.10;;;0.80;;
18322;SDS011;9287;49.456;11.064;2023-01-04T10:33:14;0.80;;;0.80;;
18322;SDS011;9287;49.456;11.064;2023-01-04T10:35:49;1.00;;;0.90;;
18322;SDS011;9287;49.456;11.064;2023-01-04T10:38:19;2.47;;;0.80;;
18322;SDS011;9287;49.456;11.064;2023-01-04T10:40:51;1.33;;;0.63;;
18322;SDS011;9287;49.456;11.064;2023-01-04T10:43:24;1.63;;;0.73;;
18322;SDS011;9287;49.456;11.064;2023-01-04T10:46:24;0.93;;;0.83;;
18322;SDS011;9287;49.456;11.064;2023-01-04T10:48:57;0.73;;;0.60;;
18322;SDS011;9287;49.456;11.064;2023-01-04T10:51:33;0.53;;;0.50;;
18322;SDS011;9287;49.456;11.064;2023-01-04T10:54:07;0.30;;;0.30;;
18322;SDS011;9287;49.456;11.064;2023-01-04T10:56:43;0.90;;;0.40;;
18322;SDS011;9287;49.456;11.064;2023-01-04T10:59:17;0.77;;;0.50;;
18322;SDS011;9287;49.456;11.064;2023-01-04T11:01:50;0.50;;;0.40;;
18322;SDS011;9287;49.456;11.064;2023-01-04T11:04:26;0.37;;;0.30;;
18322;SDS011;9287;49.456;11.064;2023-01-04T11:07:04;0.40;;;0.30;;
18322;SDS011;9287;49.456;11.064;2023-01-04T11:09:37;0.80;;;0.40;;
18322;SDS011;9287;49.456;11.064;2023-01-04T11:12:08;0.37;;;0.37;;
18322;SDS011;9287;49.456;11.064;2023-01-04T11:14:39;0.40;;;0.30;;
18322;SDS011;9287;49.456;11.064;2023-01-04T11:17:08;0.50;;;0.33;;
18322;SDS011;9287;49.456;11.064;2023-01-04T11:19:39;0.33;;;0.30;;
18322;SDS011;9287;49.456;11.064;2023-01-04T11:22:10;1.63;;;0.40;;
18322;SDS011;9287;49.456;11.064;2023-01-04T11:24:43;0.73;;;0.30;;
18322;SDS011;9287;49.456;11.064;2023-01-04T11:27:39;0.30;;;0.30;;
18322;SDS011;9287;49.456;11.064;2023-01-04T11:30:13;1.70;;;0.30;;
18322;SDS011;9287;49.456;11.064;2023-01-04T11:32:46;0.40;;;0.37;;
18322;SDS011;9287;49.456;11.064;2023-01-04T11:38:16;0.73;;;0.30;;
18322;SDS011;9287;49.456;11.064;2023-01-04T11:40:55;0.37;;;0.37;;
18322;SDS011;9287;49.456;11.064;2023-01-04T11:43:25;0.97;;;0.50;;
18322;SDS011;9287;49.456;11.064;2023-01-04T11:45:54;4.27;;;1.10;;
18322;SDS011;9287;49.456;11.064;2023-01-04T11:48:32;3.97;;;1.67;;
18322;SDS011;9287;49.456;11.064;2023-01-04T11:51:03;1.40;;;0.53;;
18322;SDS011;9287;49.456;11.064;2023-01-04T11:53:39;3.03;;;1.50;;
18322;SDS011;9287;49.456;11.064;2023-01-04T11:56:14;3.67;;;1.33;;
18322;SDS011;9287;49.456;11.064;2023-01-04T11:59:04;1.53;;;0.30;;
18322;SDS011;9287;49.456;11.064;2023-01-04T12:01:37;0.80;;;0.80;;
18322;SDS011;9287;49.456;11.064;2023-01-04T12:04:13;1.33;;;0.60;;
18322;SDS011;9287;49.456;11.064;2023-01-04T12:06:46;0.40;;;0.40;;
18322;SDS011;9287;49.456;11.064;2023-01-04T12:09:17;0.73;;;0.60;;
18322;SDS011;9287;49.456;11.064;2023-01-04T12:11:47;0.33;;;0.30;;
18322;SDS011;9287;49.456;11.064;2023-01-04T12:14:20;1.37;;;0.30;;
18322;SDS011;9287;49.456;11.064;2023-01-04T12:16:52;0.40;;;0.37;;
18322;SDS011;9287;49.456;11.064;2023-01-04T12:19:24;2.20;;;0.40;;
18322;SDS011;9287;49.456;11.064;2023-01-04T12:21:55;2.57;;;0.40;;
18322;SDS011;9287;49.456;11.064;2023-01-04T12:24:25;0.97;;;0.30;;
18322;SDS011;9287;49.456;11.064;2023-01-04T12:26:55;1.37;;;0.50;;
18322;SDS011;9287;49.456;11.064;2023-01-04T12:47:49;0.50;;;0.30;;
18322;SDS011;9287;49.456;11.064;2023-01-04T12:54:04;1.80;;;0.40;;
18322;SDS011;9287;49.456;11.064;2023-01-04T12:59:54;0.50;;;0.30;;
18322;SDS011;9287;49.456;11.064;2023-01-04T13:02:23;1.50;;;0.30;;
18322;SDS011;9287;49.456;11.064;2023-01-04T13:04:53;0.93;;;0.30;;
18322;SDS011;9287;49.456;11.064;2023-01-04T13:07:43;0.37;;;0.23;;
18322;SDS011;9287;49.456;11.064;2023-01-04T13:10:19;0.30;;;0.30;;
18322;SDS011;9287;49.456;11.064;2023-01-04T13:12:58;1.00;;;0.30;;
18322;SDS011;9287;49.456;11.064;2023-01-04T13:15:42;0.70;;;0.30;;
18322;SDS011;9287;49.456;11.064;2023-01-04T13:18:26;0.40;;;0.30;;
18322;SDS011;9287;49.456;11.064;2023-01-04T13:21:00;0.40;;;0.30;;
18322;SDS011;9287;49.456;11.064;2023-01-04T13:23:30;0.60;;;0.40;;
18322;SDS011;9287;49.456;11.064;2023-01-04T13:29:05;1.80;;;0.30;;
18322;SDS011;9287;49.456;11.064;2023-01-04T13:31:47;0.60;;;0.30;;
18322;SDS011;9287;49.456;11.064;2023-01-04T13:34:18;0.60;;;0.20;;
18322;SDS011;9287;49.456;11.064;2023-01-04T13:36:53;0.60;;;0.30;;
18322;SDS011;9287;49.456;11.064;2023-01-04T13:39:24;0.30;;;0.30;;
18322;SDS011;9287;49.456;11.064;2023-01-04T13:41:52;1.13;;;0.27;;
18322;SDS011;9287;49.456;11.064;2023-01-04T13:44:25;0.37;;;0.30;;
18322;SDS011;9287;49.456;11.064;2023-01-04T13:47:33;0.90;;;0.30;;
18322;SDS011;9287;49.456;11.064;2023-01-04T13:50:02;0.30;;;0.30;;
18322;SDS011;9287;49.456;11.064;2023-01-04T13:52:31;0.70;;;0.40;;
18322;SDS011;9287;49.456;11.064;2023-01-04T13:55:23;0.40;;;0.30;;
18322;SDS011;9287;49.456;11.064;2023-01-04T13:57:53;0.37;;;0.30;;
18322;SDS011;9287;49.456;11.064;2023-01-04T14:00:27;0.53;;;0.30;;
18322;SDS011;9287;49.456;11.064;2023-01-04T14:03:11;1.70;;;0.40;;
18322;SDS011;9287;49.456;11.064;2023-01-04T14:05:48;1.80;;;0.30;;
18322;SDS011;9287;49.456;11.064;2023-01-04T14:08:20;0.70;;;0.60;;
18322;SDS011;9287;49.456;11.064;2023-01-04T14:10:56;2.20;;;0.30;;
18322;SDS011;9287;49.456;11.064;2023-01-04T14:13:24;0.20;;;0.20;;
18322;SDS011;9287;49.456;11.064;2023-01-04T14:16:09;0.63;;;0.40;;
18322;SDS011;9287;49.456;11.064;2023-01-04T14:18:39;1.20;;;0.30;;
18322;SDS011;9287;49.456;11.064;2023-01-04T14:21:13;1.13;;;0.30;;
18322;SDS011;9287;49.456;11.064;2023-01-04T14:23:42;0.50;;;0.37;;
18322;SDS011;9287;49.456;11.064;2023-01-04T14:28:55;1.03;;;0.30;;
18322;SDS011;9287;49.456;11.064;2023-01-04T14:31:32;0.43;;;0.30;;
18322;SDS011;9287;49.456;11.064;2023-01-04T14:34:06;0.87;;;0.30;;
18322;SDS011;9287;49.456;11.064;2023-01-04T14:36:39;1.07;;;0.40;;
18322;SDS011;9287;49.456;11.064;2023-01-04T14:39:10;0.50;;;0.40;;
18322;SDS011;9287;49.456;11.064;2023-01-04T14:41:51;0.73;;;0.30;;
18322;SDS011;9287;49.456;11.064;2023-01-04T14:44:25;1.07;;;0.37;;
18322;SDS011;9287;49.456;11.064;2023-01-04T14:46:57;1.47;;;0.40;;
18322;SDS011;9287;49.456;11.064;2023-01-04T14:49:26;0.33;;;0.30;;
18322;SDS011;9287;49.456;11.064;2023-01-04T14:51:55;0.60;;;0.30;;
18322;SDS011;9287;49.456;11.064;2023-01-04T14:54:25;0.30;;;0.30;;
18322;SDS011;9287;49.456;11.064;2023-01-04T14:56:55;0.30;;;0.30;;
18322;SDS011;9287;49.456;11.064;2023-01-04T14:59:24;0.97;;;0.30;;
18322;SDS011;9287;49.456;11.064;2023-01-04T15:01:54;0.50;;;0.40;;
18322;SDS011;9287;49.456;11.064;2023-01-04T15:04:24;0.37;;;0.37;;
18322;SDS011;9287;49.456;11.064;2023-01-04T15:06:53;0.30;;;0.30;;
18322;SDS011;9287;49.456;11.064;2023-01-04T15:09:22;0.77;;;0.40;;
18322;SDS011;9287;49.456;11.064;2023-01-04T15:11:50;0.23;;;0.23;;
18322;SDS011;9287;49.456;11.064;2023-01-04T15:14:18;0.53;;;0.30;;
18322;SDS011;9287;49.456;11.064;2023-01-04T15:16:46;2.93;;;0.40;;
18322;SDS011;9287;49.456;11.064;2023-01-04T15:19:14;1.23;;;0.60;;
18322;SDS011;9287;49.456;11.064;2023-01-04T15:21:43;4.10;;;1.67;;
18322;SDS011;9287;49.456;11.064;2023-01-04T15:24:11;0.60;;;0.40;;
18322;SDS011;9287;49.456;11.064;2023-01-04T15:26:39;0.63;;;0.40;;
18322;SDS011;9287;49.456;11.064;2023-01-04T15:29:06;1.30;;;0.50;;
18322;SDS011;9287;49.456;11.064;2023-01-04T15:31:35;1.77;;;0.60;;
18322;SDS011;9287;49.456;11.064;2023-01-04T15:34:05;1.23;;;0.50;;
18322;SDS011;9287;49.456;11.064;2023-01-04T15:36:33;0.60;;;0.40;;
18322;SDS011;9287;49.456;11.064;2023-01-04T15:39:05;1.67;;;0.60;;
18322;SDS011;9287;49.456;11.064;2023-01-04T15:41:33;1.50;;;0.50;;
18322;SDS011;9287;49.456;11.064;2023-01-04T15:44:18;2.00;;;0.60;;